sensor_id;sensor_type;location;lat;lon;timestamp;temperature;humidity
69598;SHT31;70000;51.176;-115.568;2023-12-28T00:00:16;-2.68;66.57
69598;SHT31;70000;51.176;-115.568;2023-12-28T00:02:46;-2.68;66.53
69598;SHT31;70000;51.176;-115.568;2023-12-28T00:14:33;-2.63;66.61
69598;SHT31;70000;51.176;-115.568;2023-12-28T00:17:03;-2.60;66.67
69598;SHT31;70000;51.176;-115.568;2023-12-28T00:19:32;-2.59;66.79
69598;SHT31;70000;51.176;-115.568;2023-12-28T00:25:05;-2.51;66.76
69598;SHT31;70000;51.176;-115.568;2023-12-28T00:30:59;-2.47;66.66
69598;SHT31;70000;51.176;-115.568;2023-12-28T00:36:34;-2.45;66.44
69598;SHT31;70000;51.176;-115.568;2023-12-28T00:39:04;-2.44;66.45
69598;SHT31;70000;51.176;-115.568;2023-12-28T00:41:33;-2.42;66.34
69598;SHT31;70000;51.176;-115.568;2023-12-28T00:44:02;-2.40;66.42
69598;SHT31;70000;51.176;-115.568;2023-12-28T00:46:32;-2.39;66.20
69598;SHT31;70000;51.176;-115.568;2023-12-28T00:49:01;-2.40;66.13
69598;SHT31;70000;51.176;-115.568;2023-12-28T00:51:30;-2.39;66.29
69598;SHT31;70000;51.176;-115.568;2023-12-28T00:54:00;-2.38;66.08
69598;SHT31;70000;51.176;-115.568;2023-12-28T00:56:29;-2.37;66.04
69598;SHT31;70000;51.176;-115.568;2023-12-28T00:58:58;-2.35;66.11
69598;SHT31;70000;51.176;-115.568;2023-12-28T01:01:29;-2.36;66.10
69598;SHT31;70000;51.176;-115.568;2023-12-28T01:03:58;-2.36;66.18
69598;SHT31;70000;51.176;-115.568;2023-12-28T01:06:27;-2.36;66.19
69598;SHT31;70000;51.176;-115.568;2023-12-28T01:08:57;-2.37;65.93
69598;SHT31;70000;51.176;-115.568;2023-12-28T01:11:26;-2.37;65.78
69598;SHT31;70000;51.176;-115.568;2023-12-28T01:13:55;-2.38;65.61
69598;SHT31;70000;51.176;-115.568;2023-12-28T01:16:25;-2.38;65.57
69598;SHT31;70000;51.176;-115.568;2023-12-28T01:18:54;-2.39;65.41
69598;SHT31;70000;51.176;-115.568;2023-12-28T01:21:23;-2.42;65.28
69598;SHT31;70000;51.176;-115.568;2023-12-28T01:23:53;-2.43;65.18
69598;SHT31;70000;51.176;-115.568;2023-12-28T01:26:22;-2.44;65.06
69598;SHT31;70000;51.176;-115.568;2023-12-28T01:28:51;-2.44;65.08
69598;SHT31;70000;51.176;-115.568;2023-12-28T01:31:20;-2.46;65.15
69598;SHT31;70000;51.176;-115.568;2023-12-28T01:33:49;-2.47;65.28
69598;SHT31;70000;51.176;-115.568;2023-12-28T01:36:18;-2.50;65.39
69598;SHT31;70000;51.176;-115.568;2023-12-28T01:38:49;-2.51;65.55
69598;SHT31;70000;51.176;-115.568;2023-12-28T01:41:21;-2.57;65.70
69598;SHT31;70000;51.176;-115.568;2023-12-28T01:43:50;-2.59;65.81
69598;SHT31;70000;51.176;-115.568;2023-12-28T01:49:30;-2.68;66.06
69598;SHT31;70000;51.176;-115.568;2023-12-28T01:52:05;-2.70;66.12
69598;SHT31;70000;51.176;-115.568;2023-12-28T01:54:35;-2.72;66.10
69598;SHT31;70000;51.176;-115.568;2023-12-28T01:57:06;-2.74;66.18
69598;SHT31;70000;51.176;-115.568;2023-12-28T01:59:37;-2.75;66.27
69598;SHT31;70000;51.176;-115.568;2023-12-28T02:02:10;-2.76;66.40
69598;SHT31;70000;51.176;-115.568;2023-12-28T02:04:39;-2.78;66.44
69598;SHT31;70000;51.176;-115.568;2023-12-28T02:07:09;-2.81;66.59
69598;SHT31;70000;51.176;-115.568;2023-12-28T02:13:13;-2.81;66.51
69598;SHT31;70000;51.176;-115.568;2023-12-28T02:15:42;-2.79;66.38
69598;SHT31;70000;51.176;-115.568;2023-12-28T02:18:22;-2.79;66.22
69598;SHT31;70000;51.176;-115.568;2023-12-28T02:21:15;-2.76;66.03
69598;SHT31;70000;51.176;-115.568;2023-12-28T02:23:47;-2.73;66.01
69598;SHT31;70000;51.176;-115.568;2023-12-28T02:26:17;-2.73;66.13
69598;SHT31;70000;51.176;-115.568;2023-12-28T02:28:46;-2.73;66.31
69598;SHT31;70000;51.176;-115.568;2023-12-28T02:31:26;-2.76;66.53
69598;SHT31;70000;51.176;-115.568;2023-12-28T02:34:08;-2.79;66.58
69598;SHT31;70000;51.176;-115.568;2023-12-28T02:36:49;-2.83;66.77
69598;SHT31;70000;51.176;-115.568;2023-12-28T02:39:27;-2.86;66.95
69598;SHT31;70000;51.176;-115.568;2023-12-28T02:41:57;-2.89;67.10
69598;SHT31;70000;51.176;-115.568;2023-12-28T02:47:42;-2.93;67.34
69598;SHT31;70000;51.176;-115.568;2023-12-28T02:50:11;-2.96;67.37
69598;SHT31;70000;51.176;-115.568;2023-12-28T02:52:39;-2.99;67.42
69598;SHT31;70000;51.176;-115.568;2023-12-28T02:55:08;-3.01;67.46
69598;SHT31;70000;51.176;-115.568;2023-12-28T02:57:37;-3.02;67.51
69598;SHT31;70000;51.176;-115.568;2023-12-28T03:00:06;-3.01;67.50
69598;SHT31;70000;51.176;-115.568;2023-12-28T03:02:38;-2.99;67.41
69598;SHT31;70000;51.176;-115.568;2023-12-28T03:05:06;-2.95;67.30
69598;SHT31;70000;51.176;-115.568;2023-12-28T03:07:36;-2.91;67.20
69598;SHT31;70000;51.176;-115.568;2023-12-28T03:10:04;-2.89;67.27
69598;SHT31;70000;51.176;-115.568;2023-12-28T03:12:34;-2.87;67.32
69598;SHT31;70000;51.176;-115.568;2023-12-28T03:15:02;-2.85;67.34
69598;SHT31;70000;51.176;-115.568;2023-12-28T03:17:32;-2.83;67.30
69598;SHT31;70000;51.176;-115.568;2023-12-28T03:20:01;-2.83;67.35
69598;SHT31;70000;51.176;-115.568;2023-12-28T03:22:30;-2.83;67.35
69598;SHT31;70000;51.176;-115.568;2023-12-28T03:25:00;-2.85;67.40
69598;SHT31;70000;51.176;-115.568;2023-12-28T03:27:29;-2.86;67.40
69598;SHT31;70000;51.176;-115.568;2023-12-28T03:29:57;-2.85;67.39
69598;SHT31;70000;51.176;-115.568;2023-12-28T03:32:26;-2.85;67.40
69598;SHT31;70000;51.176;-115.568;2023-12-28T03:34:55;-2.85;67.35
69598;SHT31;70000;51.176;-115.568;2023-12-28T03:37:23;-2.86;67.34
69598;SHT31;70000;51.176;-115.568;2023-12-28T03:39:54;-2.90;67.39
69598;SHT31;70000;51.176;-115.568;2023-12-28T03:42:22;-2.93;67.30
69598;SHT31;70000;51.176;-115.568;2023-12-28T03:44:51;-2.94;67.30
69598;SHT31;70000;51.176;-115.568;2023-12-28T03:47:19;-2.95;67.34
69598;SHT31;70000;51.176;-115.568;2023-12-28T03:50:04;-2.96;67.40
69598;SHT31;70000;51.176;-115.568;2023-12-28T03:52:34;-2.97;67.43
69598;SHT31;70000;51.176;-115.568;2023-12-28T03:55:04;-3.01;67.55
69598;SHT31;70000;51.176;-115.568;2023-12-28T03:57:33;-3.08;67.73
69598;SHT31;70000;51.176;-115.568;2023-12-28T04:00:02;-3.13;67.86
69598;SHT31;70000;51.176;-115.568;2023-12-28T04:02:32;-3.14;67.96
69598;SHT31;70000;51.176;-115.568;2023-12-28T04:05:01;-3.12;67.99
69598;SHT31;70000;51.176;-115.568;2023-12-28T04:07:32;-3.12;67.99
69598;SHT31;70000;51.176;-115.568;2023-12-28T04:10:02;-3.14;68.07
69598;SHT31;70000;51.176;-115.568;2023-12-28T04:12:46;-3.13;68.05
69598;SHT31;70000;51.176;-115.568;2023-12-28T04:15:15;-3.11;68.05
69598;SHT31;70000;51.176;-115.568;2023-12-28T04:17:44;-3.10;68.04
69598;SHT31;70000;51.176;-115.568;2023-12-28T04:20:14;-3.10;68.14
69598;SHT31;70000;51.176;-115.568;2023-12-28T04:22:43;-3.09;68.17
69598;SHT31;70000;51.176;-115.568;2023-12-28T04:25:12;-3.09;68.10
69598;SHT31;70000;51.176;-115.568;2023-12-28T04:27:43;-3.06;68.04
69598;SHT31;70000;51.176;-115.568;2023-12-28T04:30:13;-3.05;68.10
69598;SHT31;70000;51.176;-115.568;2023-12-28T04:32:43;-3.06;68.06
69598;SHT31;70000;51.176;-115.568;2023-12-28T04:35:12;-3.07;68.10
69598;SHT31;70000;51.176;-115.568;2023-12-28T04:37:41;-3.05;68.16
69598;SHT31;70000;51.176;-115.568;2023-12-28T04:40:10;-3.05;68.12
69598;SHT31;70000;51.176;-115.568;2023-12-28T04:42:41;-3.06;68.20
69598;SHT31;70000;51.176;-115.568;2023-12-28T04:45:11;-3.09;68.20
69598;SHT31;70000;51.176;-115.568;2023-12-28T04:47:40;-3.09;68.20
69598;SHT31;70000;51.176;-115.568;2023-12-28T04:50:09;-3.08;68.20
69598;SHT31;70000;51.176;-115.568;2023-12-28T04:52:39;-3.06;68.19
69598;SHT31;70000;51.176;-115.568;2023-12-28T04:55:08;-3.07;68.20
69598;SHT31;70000;51.176;-115.568;2023-12-28T04:57:40;-3.10;68.20
69598;SHT31;70000;51.176;-115.568;2023-12-28T05:00:10;-3.10;68.20
69598;SHT31;70000;51.176;-115.568;2023-12-28T05:02:40;-3.13;68.20
69598;SHT31;70000;51.176;-115.568;2023-12-28T05:05:11;-3.15;68.20
69598;SHT31;70000;51.176;-115.568;2023-12-28T05:07:41;-3.16;68.20
69598;SHT31;70000;51.176;-115.568;2023-12-28T05:10:09;-3.16;68.20
69598;SHT31;70000;51.176;-115.568;2023-12-28T05:12:38;-3.15;68.19
69598;SHT31;70000;51.176;-115.568;2023-12-28T05:15:10;-3.17;68.23
69598;SHT31;70000;51.176;-115.568;2023-12-28T05:17:39;-3.23;68.28
69598;SHT31;70000;51.176;-115.568;2023-12-28T05:28:18;-3.39;68.80
69598;SHT31;70000;51.176;-115.568;2023-12-28T05:30:47;-3.40;68.91
69598;SHT31;70000;51.176;-115.568;2023-12-28T05:33:17;-3.38;68.91
69598;SHT31;70000;51.176;-115.568;2023-12-28T05:35:46;-3.34;68.77
69598;SHT31;70000;51.176;-115.568;2023-12-28T05:38:15;-3.31;68.71
69598;SHT31;70000;51.176;-115.568;2023-12-28T05:40:50;-3.28;68.62
69598;SHT31;70000;51.176;-115.568;2023-12-28T05:43:21;-3.27;68.59
69598;SHT31;70000;51.176;-115.568;2023-12-28T05:45:50;-3.28;68.64
69598;SHT31;70000;51.176;-115.568;2023-12-28T05:48:19;-3.28;68.68
69598;SHT31;70000;51.176;-115.568;2023-12-28T05:50:48;-3.29;68.70
69598;SHT31;70000;51.176;-115.568;2023-12-28T05:53:17;-3.31;68.73
69598;SHT31;70000;51.176;-115.568;2023-12-28T05:55:46;-3.32;68.80
69598;SHT31;70000;51.176;-115.568;2023-12-28T05:58:15;-3.31;68.80
69598;SHT31;70000;51.176;-115.568;2023-12-28T06:00:45;-3.31;68.80
69598;SHT31;70000;51.176;-115.568;2023-12-28T06:03:15;-3.31;68.83
69598;SHT31;70000;51.176;-115.568;2023-12-28T06:05:45;-3.28;68.80
69598;SHT31;70000;51.176;-115.568;2023-12-28T06:08:14;-3.25;68.79
69598;SHT31;70000;51.176;-115.568;2023-12-28T06:10:43;-3.22;68.76
69598;SHT31;70000;51.176;-115.568;2023-12-28T06:13:12;-3.21;68.71
69598;SHT31;70000;51.176;-115.568;2023-12-28T06:15:42;-3.18;68.65
69598;SHT31;70000;51.176;-115.568;2023-12-28T06:18:11;-3.13;68.57
69598;SHT31;70000;51.176;-115.568;2023-12-28T06:20:41;-3.08;68.45
69598;SHT31;70000;51.176;-115.568;2023-12-28T06:23:25;-3.06;68.33
69598;SHT31;70000;51.176;-115.568;2023-12-28T06:25:54;-3.02;68.22
69598;SHT31;70000;51.176;-115.568;2023-12-28T06:28:24;-3.03;68.13
69598;SHT31;70000;51.176;-115.568;2023-12-28T06:30:53;-3.03;68.03
69598;SHT31;70000;51.176;-115.568;2023-12-28T06:33:29;-3.07;68.06
69598;SHT31;70000;51.176;-115.568;2023-12-28T06:36:04;-3.10;68.03
69598;SHT31;70000;51.176;-115.568;2023-12-28T06:38:50;-3.12;68.11
69598;SHT31;70000;51.176;-115.568;2023-12-28T06:41:20;-3.12;68.17
69598;SHT31;70000;51.176;-115.568;2023-12-28T06:43:49;-3.09;68.20
69598;SHT31;70000;51.176;-115.568;2023-12-28T06:46:18;-3.06;68.20
69598;SHT31;70000;51.176;-115.568;2023-12-28T06:48:48;-3.07;68.25
69598;SHT31;70000;51.176;-115.568;2023-12-28T06:54:22;-3.13;68.49
69598;SHT31;70000;51.176;-115.568;2023-12-28T06:56:52;-3.16;68.50
69598;SHT31;70000;51.176;-115.568;2023-12-28T06:59:21;-3.17;68.52
69598;SHT31;70000;51.176;-115.568;2023-12-28T07:04:54;-3.23;68.50
69598;SHT31;70000;51.176;-115.568;2023-12-28T07:07:23;-3.28;68.50
69598;SHT31;70000;51.176;-115.568;2023-12-28T07:09:53;-3.29;68.49
69598;SHT31;70000;51.176;-115.568;2023-12-28T07:12:22;-3.30;68.47
69598;SHT31;70000;51.176;-115.568;2023-12-28T07:14:52;-3.30;68.50
69598;SHT31;70000;51.176;-115.568;2023-12-28T07:20:34;-3.31;68.49
69598;SHT31;70000;51.176;-115.568;2023-12-28T07:23:03;-3.30;68.50
69598;SHT31;70000;51.176;-115.568;2023-12-28T07:25:36;-3.29;68.50
69598;SHT31;70000;51.176;-115.568;2023-12-28T07:28:05;-3.27;68.50
69598;SHT31;70000;51.176;-115.568;2023-12-28T07:30:35;-3.23;68.50
69598;SHT31;70000;51.176;-115.568;2023-12-28T07:33:05;-3.20;68.50
69598;SHT31;70000;51.176;-115.568;2023-12-28T07:35:52;-3.18;68.52
69598;SHT31;70000;51.176;-115.568;2023-12-28T07:38:21;-3.18;68.58
69598;SHT31;70000;51.176;-115.568;2023-12-28T07:40:50;-3.15;68.67
69598;SHT31;70000;51.176;-115.568;2023-12-28T07:43:20;-3.11;68.60
69598;SHT31;70000;51.176;-115.568;2023-12-28T07:45:49;-3.11;68.52
69598;SHT31;70000;51.176;-115.568;2023-12-28T07:48:18;-3.15;68.59
69598;SHT31;70000;51.176;-115.568;2023-12-28T07:50:47;-3.16;68.63
69598;SHT31;70000;51.176;-115.568;2023-12-28T07:53:17;-3.12;68.69
69598;SHT31;70000;51.176;-115.568;2023-12-28T07:55:46;-3.08;68.63
69598;SHT31;70000;51.176;-115.568;2023-12-28T07:58:15;-3.05;68.51
69598;SHT31;70000;51.176;-115.568;2023-12-28T08:00:44;-3.04;68.44
69598;SHT31;70000;51.176;-115.568;2023-12-28T08:03:13;-3.02;68.42
69598;SHT31;70000;51.176;-115.568;2023-12-28T08:05:43;-2.97;68.40
69598;SHT31;70000;51.176;-115.568;2023-12-28T08:08:12;-2.93;68.30
69598;SHT31;70000;51.176;-115.568;2023-12-28T08:10:41;-2.88;68.22
69598;SHT31;70000;51.176;-115.568;2023-12-28T08:13:11;-2.79;68.16
69598;SHT31;70000;51.176;-115.568;2023-12-28T08:15:40;-2.68;67.94
69598;SHT31;70000;51.176;-115.568;2023-12-28T08:18:10;-2.63;67.84
69598;SHT31;70000;51.176;-115.568;2023-12-28T08:20:39;-2.58;67.71
69598;SHT31;70000;51.176;-115.568;2023-12-28T08:23:08;-2.53;67.60
69598;SHT31;70000;51.176;-115.568;2023-12-28T08:25:44;-2.49;67.51
69598;SHT31;70000;51.176;-115.568;2023-12-28T08:28:13;-2.47;67.33
69598;SHT31;70000;51.176;-115.568;2023-12-28T08:30:42;-2.44;67.28
69598;SHT31;70000;51.176;-115.568;2023-12-28T08:33:12;-2.42;67.21
69598;SHT31;70000;51.176;-115.568;2023-12-28T08:35:41;-2.38;67.15
69598;SHT31;70000;51.176;-115.568;2023-12-28T08:38:11;-2.37;67.06
69598;SHT31;70000;51.176;-115.568;2023-12-28T08:40:40;-2.34;67.06
69598;SHT31;70000;51.176;-115.568;2023-12-28T08:43:11;-2.31;66.98
69598;SHT31;70000;51.176;-115.568;2023-12-28T08:45:40;-2.32;66.89
69598;SHT31;70000;51.176;-115.568;2023-12-28T08:48:09;-2.30;66.91
69598;SHT31;70000;51.176;-115.568;2023-12-28T08:50:38;-2.29;66.94
69598;SHT31;70000;51.176;-115.568;2023-12-28T08:53:07;-2.31;66.92
69598;SHT31;70000;51.176;-115.568;2023-12-28T08:55:36;-2.33;66.92
69598;SHT31;70000;51.176;-115.568;2023-12-28T08:58:05;-2.38;66.89
69598;SHT31;70000;51.176;-115.568;2023-12-28T09:00:35;-2.41;66.92
69598;SHT31;70000;51.176;-115.568;2023-12-28T09:03:04;-2.45;67.00
69598;SHT31;70000;51.176;-115.568;2023-12-28T09:09:04;-2.46;67.20
69598;SHT31;70000;51.176;-115.568;2023-12-28T09:11:32;-2.43;67.21
69598;SHT31;70000;51.176;-115.568;2023-12-28T09:14:01;-2.41;67.16
69598;SHT31;70000;51.176;-115.568;2023-12-28T09:16:29;-2.43;67.06
69598;SHT31;70000;51.176;-115.568;2023-12-28T09:19:02;-2.45;67.02
69598;SHT31;70000;51.176;-115.568;2023-12-28T09:21:31;-2.47;67.05
69598;SHT31;70000;51.176;-115.568;2023-12-28T09:23:59;-2.48;67.07
69598;SHT31;70000;51.176;-115.568;2023-12-28T09:26:28;-2.47;67.00
69598;SHT31;70000;51.176;-115.568;2023-12-28T09:28:56;-2.48;66.93
69598;SHT31;70000;51.176;-115.568;2023-12-28T09:31:24;-2.52;66.87
69598;SHT31;70000;51.176;-115.568;2023-12-28T09:33:53;-2.57;66.94
69598;SHT31;70000;51.176;-115.568;2023-12-28T09:36:21;-2.61;67.08
69598;SHT31;70000;51.176;-115.568;2023-12-28T09:38:49;-2.63;67.19
69598;SHT31;70000;51.176;-115.568;2023-12-28T09:41:18;-2.63;67.24
69598;SHT31;70000;51.176;-115.568;2023-12-28T09:44:07;-2.65;67.33
69598;SHT31;70000;51.176;-115.568;2023-12-28T09:46:41;-2.63;67.40
69598;SHT31;70000;51.176;-115.568;2023-12-28T09:49:11;-2.64;67.47
69598;SHT31;70000;51.176;-115.568;2023-12-28T09:51:39;-2.62;67.50
69598;SHT31;70000;51.176;-115.568;2023-12-28T09:54:08;-2.64;67.50
69598;SHT31;70000;51.176;-115.568;2023-12-28T09:56:36;-2.67;67.63
69598;SHT31;70000;51.176;-115.568;2023-12-28T09:59:06;-2.67;67.70
69598;SHT31;70000;51.176;-115.568;2023-12-28T10:01:35;-2.67;67.70
69598;SHT31;70000;51.176;-115.568;2023-12-28T10:04:04;-2.66;67.70
69598;SHT31;70000;51.176;-115.568;2023-12-28T10:06:35;-2.67;67.75
69598;SHT31;70000;51.176;-115.568;2023-12-28T10:09:03;-2.68;67.87
69598;SHT31;70000;51.176;-115.568;2023-12-28T10:11:34;-2.70;68.11
69598;SHT31;70000;51.176;-115.568;2023-12-28T10:14:04;-2.69;68.26
69598;SHT31;70000;51.176;-115.568;2023-12-28T10:16:34;-2.67;68.24
69598;SHT31;70000;51.176;-115.568;2023-12-28T10:19:02;-2.65;68.20
69598;SHT31;70000;51.176;-115.568;2023-12-28T10:24:45;-2.65;68.25
69598;SHT31;70000;51.176;-115.568;2023-12-28T10:27:14;-2.62;68.21
69598;SHT31;70000;51.176;-115.568;2023-12-28T10:29:44;-2.60;68.20
69598;SHT31;70000;51.176;-115.568;2023-12-28T10:32:13;-2.59;68.20
69598;SHT31;70000;51.176;-115.568;2023-12-28T10:34:43;-2.57;68.24
69598;SHT31;70000;51.176;-115.568;2023-12-28T10:37:12;-2.56;68.16
69598;SHT31;70000;51.176;-115.568;2023-12-28T10:39:43;-2.54;68.10
69598;SHT31;70000;51.176;-115.568;2023-12-28T10:42:42;-2.54;68.00
69598;SHT31;70000;51.176;-115.568;2023-12-28T10:45:34;-2.53;68.00
69598;SHT31;70000;51.176;-115.568;2023-12-28T10:51:11;-2.50;68.03
69598;SHT31;70000;51.176;-115.568;2023-12-28T10:53:47;-2.48;68.10
69598;SHT31;70000;51.176;-115.568;2023-12-28T11:02:03;-2.44;68.00
69598;SHT31;70000;51.176;-115.568;2023-12-28T11:04:40;-2.46;68.04
69598;SHT31;70000;51.176;-115.568;2023-12-28T11:07:18;-2.45;68.09
69598;SHT31;70000;51.176;-115.568;2023-12-28T11:09:49;-2.44;68.15
69598;SHT31;70000;51.176;-115.568;2023-12-28T11:12:20;-2.44;68.10
69598;SHT31;70000;51.176;-115.568;2023-12-28T11:14:50;-2.43;68.12
69598;SHT31;70000;51.176;-115.568;2023-12-28T11:17:21;-2.41;68.20
69598;SHT31;70000;51.176;-115.568;2023-12-28T11:19:54;-2.39;68.21
69598;SHT31;70000;51.176;-115.568;2023-12-28T11:22:24;-2.36;68.23
69598;SHT31;70000;51.176;-115.568;2023-12-28T11:24:55;-2.34;68.13
69598;SHT31;70000;51.176;-115.568;2023-12-28T11:27:32;-2.33;68.03
69598;SHT31;70000;51.176;-115.568;2023-12-28T11:30:04;-2.33;68.04
69598;SHT31;70000;51.176;-115.568;2023-12-28T11:32:37;-2.35;68.04
69598;SHT31;70000;51.176;-115.568;2023-12-28T11:35:12;-2.34;68.12
69598;SHT31;70000;51.176;-115.568;2023-12-28T11:37:46;-2.37;68.33
69598;SHT31;70000;51.176;-115.568;2023-12-28T11:40:19;-2.41;68.51
69598;SHT31;70000;51.176;-115.568;2023-12-28T11:42:50;-2.41;68.57
69598;SHT31;70000;51.176;-115.568;2023-12-28T11:45:22;-2.41;68.62
69598;SHT31;70000;51.176;-115.568;2023-12-28T11:47:59;-2.38;68.72
69598;SHT31;70000;51.176;-115.568;2023-12-28T11:50:30;-2.33;68.77
69598;SHT31;70000;51.176;-115.568;2023-12-28T11:53:00;-2.33;68.62
69598;SHT31;70000;51.176;-115.568;2023-12-28T11:55:29;-2.32;68.56
69598;SHT31;70000;51.176;-115.568;2023-12-28T11:57:58;-2.30;68.78
69598;SHT31;70000;51.176;-115.568;2023-12-28T12:00:28;-2.20;69.00
69598;SHT31;70000;51.176;-115.568;2023-12-28T12:02:57;-2.09;68.89
69598;SHT31;70000;51.176;-115.568;2023-12-28T12:05:27;-2.03;68.85
69598;SHT31;70000;51.176;-115.568;2023-12-28T12:07:56;-1.97;68.71
69598;SHT31;70000;51.176;-115.568;2023-12-28T12:10:25;-1.93;68.55
69598;SHT31;70000;51.176;-115.568;2023-12-28T12:12:57;-1.92;68.41
69598;SHT31;70000;51.176;-115.568;2023-12-28T12:15:29;-1.91;68.31
69598;SHT31;70000;51.176;-115.568;2023-12-28T12:17:59;-1.90;68.20
69598;SHT31;70000;51.176;-115.568;2023-12-28T12:20:33;-1.90;68.07
69598;SHT31;70000;51.176;-115.568;2023-12-28T12:23:03;-1.93;67.99
69598;SHT31;70000;51.176;-115.568;2023-12-28T12:25:32;-1.96;67.90
69598;SHT31;70000;51.176;-115.568;2023-12-28T12:28:01;-2.00;67.92
69598;SHT31;70000;51.176;-115.568;2023-12-28T12:30:31;-2.04;67.89
69598;SHT31;70000;51.176;-115.568;2023-12-28T12:33:01;-2.06;67.99
69598;SHT31;70000;51.176;-115.568;2023-12-28T12:35:31;-2.08;67.92
69598;SHT31;70000;51.176;-115.568;2023-12-28T12:38:01;-2.09;68.02
69598;SHT31;70000;51.176;-115.568;2023-12-28T12:40:31;-2.11;68.09
69598;SHT31;70000;51.176;-115.568;2023-12-28T12:43:02;-2.15;68.06
69598;SHT31;70000;51.176;-115.568;2023-12-28T12:45:31;-2.16;68.10
69598;SHT31;70000;51.176;-115.568;2023-12-28T12:48:02;-2.16;68.17
69598;SHT31;70000;51.176;-115.568;2023-12-28T12:50:32;-2.15;68.20
69598;SHT31;70000;51.176;-115.568;2023-12-28T12:53:01;-2.16;68.21
69598;SHT31;70000;51.176;-115.568;2023-12-28T12:55:32;-2.16;68.20
69598;SHT31;70000;51.176;-115.568;2023-12-28T12:58:02;-2.15;68.29
69598;SHT31;70000;51.176;-115.568;2023-12-28T13:00:32;-2.13;68.38
69598;SHT31;70000;51.176;-115.568;2023-12-28T13:03:03;-2.11;68.42
69598;SHT31;70000;51.176;-115.568;2023-12-28T13:05:36;-2.11;68.57
69598;SHT31;70000;51.176;-115.568;2023-12-28T13:08:06;-2.10;68.61
69598;SHT31;70000;51.176;-115.568;2023-12-28T13:10:35;-2.09;68.91
69598;SHT31;70000;51.176;-115.568;2023-12-28T13:13:06;-2.11;68.90
69598;SHT31;70000;51.176;-115.568;2023-12-28T13:15:36;-2.12;68.82
69598;SHT31;70000;51.176;-115.568;2023-12-28T13:21:11;-2.14;68.82
69598;SHT31;70000;51.176;-115.568;2023-12-28T13:23:40;-2.14;68.89
69598;SHT31;70000;51.176;-115.568;2023-12-28T13:26:09;-2.14;68.88
69598;SHT31;70000;51.176;-115.568;2023-12-28T13:28:38;-2.14;68.90
69598;SHT31;70000;51.176;-115.568;2023-12-28T13:31:07;-2.15;68.95
69598;SHT31;70000;51.176;-115.568;2023-12-28T13:33:37;-2.16;69.00
69598;SHT31;70000;51.176;-115.568;2023-12-28T13:36:06;-2.15;69.05
69598;SHT31;70000;51.176;-115.568;2023-12-28T13:38:37;-2.14;69.12
69598;SHT31;70000;51.176;-115.568;2023-12-28T13:41:06;-2.12;69.20
69598;SHT31;70000;51.176;-115.568;2023-12-28T13:43:35;-2.07;69.23
69598;SHT31;70000;51.176;-115.568;2023-12-28T13:46:04;-2.06;69.30
69598;SHT31;70000;51.176;-115.568;2023-12-28T13:48:33;-2.04;69.31
69598;SHT31;70000;51.176;-115.568;2023-12-28T13:51:03;-2.03;69.39
69598;SHT31;70000;51.176;-115.568;2023-12-28T13:53:33;-2.00;69.46
69598;SHT31;70000;51.176;-115.568;2023-12-28T13:56:08;-1.99;69.51
69598;SHT31;70000;51.176;-115.568;2023-12-28T13:58:40;-1.98;69.57
69598;SHT31;70000;51.176;-115.568;2023-12-28T14:01:09;-1.96;69.59
69598;SHT31;70000;51.176;-115.568;2023-12-28T14:03:38;-1.96;69.60
69598;SHT31;70000;51.176;-115.568;2023-12-28T14:06:08;-1.93;69.60
69598;SHT31;70000;51.176;-115.568;2023-12-28T14:08:37;-1.92;69.60
69598;SHT31;70000;51.176;-115.568;2023-12-28T14:11:06;-1.90;69.65
69598;SHT31;70000;51.176;-115.568;2023-12-28T14:13:35;-1.87;69.70
69598;SHT31;70000;51.176;-115.568;2023-12-28T14:16:04;-1.89;69.70
69598;SHT31;70000;51.176;-115.568;2023-12-28T14:18:36;-1.91;69.77
69598;SHT31;70000;51.176;-115.568;2023-12-28T14:21:08;-1.90;69.76
69598;SHT31;70000;51.176;-115.568;2023-12-28T14:23:37;-1.89;69.79
69598;SHT31;70000;51.176;-115.568;2023-12-28T14:26:15;-1.89;69.73
69598;SHT31;70000;51.176;-115.568;2023-12-28T14:28:45;-1.90;69.86
69598;SHT31;70000;51.176;-115.568;2023-12-28T14:31:14;-1.89;69.88
69598;SHT31;70000;51.176;-115.568;2023-12-28T14:33:44;-1.88;69.80
69598;SHT31;70000;51.176;-115.568;2023-12-28T14:36:23;-1.87;69.74
69598;SHT31;70000;51.176;-115.568;2023-12-28T14:39:08;-1.86;69.69
69598;SHT31;70000;51.176;-115.568;2023-12-28T14:41:37;-1.87;69.71
69598;SHT31;70000;51.176;-115.568;2023-12-28T14:44:10;-1.87;69.71
69598;SHT31;70000;51.176;-115.568;2023-12-28T14:46:39;-1.87;69.73
69598;SHT31;70000;51.176;-115.568;2023-12-28T14:49:08;-1.87;69.80
69598;SHT31;70000;51.176;-115.568;2023-12-28T14:51:38;-1.85;69.90
69598;SHT31;70000;51.176;-115.568;2023-12-28T14:54:07;-1.84;70.01
69598;SHT31;70000;51.176;-115.568;2023-12-28T14:56:36;-1.82;70.18
69598;SHT31;70000;51.176;-115.568;2023-12-28T14:59:16;-1.80;70.22
69598;SHT31;70000;51.176;-115.568;2023-12-28T15:01:45;-1.76;70.18
69598;SHT31;70000;51.176;-115.568;2023-12-28T15:04:16;-1.74;70.08
69598;SHT31;70000;51.176;-115.568;2023-12-28T15:06:49;-1.72;70.10
69598;SHT31;70000;51.176;-115.568;2023-12-28T15:09:18;-1.71;70.07
69598;SHT31;70000;51.176;-115.568;2023-12-28T15:11:47;-1.69;70.00
69598;SHT31;70000;51.176;-115.568;2023-12-28T15:14:17;-1.67;69.99
69598;SHT31;70000;51.176;-115.568;2023-12-28T15:16:46;-1.66;69.96
69598;SHT31;70000;51.176;-115.568;2023-12-28T15:19:16;-1.66;69.94
69598;SHT31;70000;51.176;-115.568;2023-12-28T15:21:46;-1.66;69.96
69598;SHT31;70000;51.176;-115.568;2023-12-28T15:24:15;-1.67;70.08
69598;SHT31;70000;51.176;-115.568;2023-12-28T15:26:45;-1.65;70.03
69598;SHT31;70000;51.176;-115.568;2023-12-28T15:29:14;-1.64;70.05
69598;SHT31;70000;51.176;-115.568;2023-12-28T15:31:43;-1.64;70.03
69598;SHT31;70000;51.176;-115.568;2023-12-28T15:34:12;-1.65;70.10
69598;SHT31;70000;51.176;-115.568;2023-12-28T15:36:42;-1.63;70.10
69598;SHT31;70000;51.176;-115.568;2023-12-28T15:39:11;-1.62;70.10
69598;SHT31;70000;51.176;-115.568;2023-12-28T15:41:40;-1.62;70.16
69598;SHT31;70000;51.176;-115.568;2023-12-28T15:44:09;-1.62;70.19
69598;SHT31;70000;51.176;-115.568;2023-12-28T15:46:38;-1.62;70.28
69598;SHT31;70000;51.176;-115.568;2023-12-28T15:49:08;-1.63;70.35
69598;SHT31;70000;51.176;-115.568;2023-12-28T15:51:37;-1.62;70.30
69598;SHT31;70000;51.176;-115.568;2023-12-28T15:54:06;-1.59;70.34
69598;SHT31;70000;51.176;-115.568;2023-12-28T15:56:36;-1.56;70.45
69598;SHT31;70000;51.176;-115.568;2023-12-28T16:02:09;-1.49;70.46
69598;SHT31;70000;51.176;-115.568;2023-12-28T16:07:09;-1.42;70.40
69598;SHT31;70000;51.176;-115.568;2023-12-28T16:09:38;-1.41;70.43
69598;SHT31;70000;51.176;-115.568;2023-12-28T16:12:10;-1.38;70.38
69598;SHT31;70000;51.176;-115.568;2023-12-28T16:14:40;-1.37;70.43
69598;SHT31;70000;51.176;-115.568;2023-12-28T16:17:09;-1.34;70.35